PILOTS ONLINE: 320    ATC ONLINE: 46

CYRL - Red Lake Airport

Location

IATA YRL
City Red Lake
Country  Canada
Latitude 51° 4' 0" N
Longitude 93° 47' 35" W
Elevation 1265 ft
Type Medium Airport

Runways

08/26 5000 ft / 150 ft

Weather

METAR
2014/07/23 02:00
CYRL 230200Z 33003KT 15SM FEW022 FEW070 16/10 A3020 RMK SC1AC1 LAST STFD OBS/ NEXT 23 0900UTC SLP232 DENSITY ALT 1300FT
TAF
2014/07/22 20:00
TAF CYRL 221938Z 2220/2302 35010KT P6SM BKN050 
      BECMG 2300/2302 34005KT 
      RMK NXT FCST WILL BE ISSUED AT 231045Z

Outbound flights

Inbound flights